sensor_id;sensor_type;location;lat;lon;timestamp;pressure;altitude;pressure_sealevel;temperature;humidity
7170;BME280;3626;42.656;23.312;2023-02-11T00:00:01;96183.56;;;-3.96;69.94
7170;BME280;3626;42.656;23.312;2023-02-11T00:00:08;96176.84;;;-3.97;69.97
7170;BME280;3626;42.656;23.312;2023-02-11T00:00:15;96181.91;;;-3.97;70.01
7170;BME280;3626;42.656;23.312;2023-02-11T00:00:21;96185.25;;;-3.96;69.91
7170;BME280;3626;42.656;23.312;2023-02-11T00:00:27;96184.44;;;-3.97;70.20
7170;BME280;3626;42.656;23.312;2023-02-11T00:00:35;96184.38;;;-3.95;69.85
7170;BME280;3626;42.656;23.312;2023-02-11T00:00:43;96188.59;;;-3.96;70.12
7170;BME280;3626;42.656;23.312;2023-02-11T00:00:49;96182.72;;;-3.96;69.95
7170;BME280;3626;42.656;23.312;2023-02-11T00:00:57;96183.59;;;-3.97;70.30
7170;BME280;3626;42.656;23.312;2023-02-11T00:01:06;96185.31;;;-3.98;69.97
7170;BME280;3626;42.656;23.312;2023-02-11T00:01:15;96184.47;;;-3.98;70.03
7170;BME280;3626;42.656;23.312;2023-02-11T00:01:26;96180.28;;;-3.99;70.12
7170;BME280;3626;42.656;23.312;2023-02-11T00:01:34;96182.81;;;-3.99;69.99
7170;BME280;3626;42.656;23.312;2023-02-11T00:01:40;96179.44;;;-3.98;70.08
7170;BME280;3626;42.656;23.312;2023-02-11T00:01:46;96180.25;;;-3.98;70.02
7170;BME280;3626;42.656;23.312;2023-02-11T00:01:52;96179.44;;;-3.98;70.18
7170;BME280;3626;42.656;23.312;2023-02-11T00:01:58;96179.44;;;-3.98;70.00
7170;BME280;3626;42.656;23.312;2023-02-11T00:02:07;96181.97;;;-3.98;70.21
7170;BME280;3626;42.656;23.312;2023-02-11T00:02:13;96177.75;;;-3.99;69.97
7170;BME280;3626;42.656;23.312;2023-02-11T00:02:19;96173.59;;;-4.00;69.96
7170;BME280;3626;42.656;23.312;2023-02-11T00:02:25;96172.72;;;-3.99;70.05
7170;BME280;3626;42.656;23.312;2023-02-11T00:02:34;96181.13;;;-3.99;70.08
7170;BME280;3626;42.656;23.312;2023-02-11T00:02:40;96171.03;;;-3.99;69.99
7170;BME280;3626;42.656;23.312;2023-02-11T00:02:46;96178.59;;;-3.99;70.00
7170;BME280;3626;42.656;23.312;2023-02-11T00:02:54;96181.97;;;-3.98;69.84
7170;BME280;3626;42.656;23.312;2023-02-11T00:03:00;96173.56;;;-3.99;70.11
7170;BME280;3626;42.656;23.312;2023-02-11T00:03:07;96182.81;;;-3.99;70.20
7170;BME280;3626;42.656;23.312;2023-02-11T00:03:13;96180.28;;;-3.99;69.83
7170;BME280;3626;42.656;23.312;2023-02-11T00:03:19;96183.66;;;-3.99;69.97
7170;BME280;3626;42.656;23.312;2023-02-11T00:03:25;96181.09;;;-3.97;70.11
7170;BME280;3626;42.656;23.312;2023-02-11T00:03:31;96176.84;;;-3.97;69.83
7170;BME280;3626;42.656;23.312;2023-02-11T00:03:37;96181.91;;;-3.97;70.17
7170;BME280;3626;42.656;23.312;2023-02-11T00:03:43;96172.63;;;-3.96;69.84
7170;BME280;3626;42.656;23.312;2023-02-11T00:03:50;96179.34;;;-3.95;69.73
7170;BME280;3626;42.656;23.312;2023-02-11T00:03:57;96182.72;;;-3.95;70.19
7170;BME280;3626;42.656;23.312;2023-02-11T00:04:04;96177.66;;;-3.95;69.79
7170;BME280;3626;42.656;23.312;2023-02-11T00:04:11;96186.06;;;-3.94;70.00
7170;BME280;3626;42.656;23.312;2023-02-11T00:04:18;96181.00;;;-3.94;69.98
7170;BME280;3626;42.656;23.312;2023-02-11T00:04:24;96181.03;;;-3.96;69.91
7170;BME280;3626;42.656;23.312;2023-02-11T00:04:31;96182.72;;;-3.95;70.08
7170;BME280;3626;42.656;23.312;2023-02-11T00:04:37;96188.56;;;-3.94;70.07
7170;BME280;3626;42.656;23.312;2023-02-11T00:04:43;96183.53;;;-3.94;70.09
7170;BME280;3626;42.656;23.312;2023-02-11T00:04:49;96175.16;;;-3.95;69.93
7170;BME280;3626;42.656;23.312;2023-02-11T00:04:56;96185.22;;;-3.95;70.37
7170;BME280;3626;42.656;23.312;2023-02-11T00:05:03;96181.84;;;-3.95;69.87
7170;BME280;3626;42.656;23.312;2023-02-11T00:05:09;96169.22;;;-3.94;69.77
7170;BME280;3626;42.656;23.312;2023-02-11T00:05:15;96179.25;;;-3.92;70.03
7170;BME280;3626;42.656;23.312;2023-02-11T00:05:20;96181.78;;;-3.92;69.96
7170;BME280;3626;42.656;23.312;2023-02-11T00:05:26;96182.66;;;-3.93;69.71
7170;BME280;3626;42.656;23.312;2023-02-11T00:05:33;96180.91;;;-3.91;70.14
7170;BME280;3626;42.656;23.312;2023-02-11T00:05:39;96183.47;;;-3.93;69.74
7170;BME280;3626;42.656;23.312;2023-02-11T00:05:45;96185.94;;;-3.91;70.06
7170;BME280;3626;42.656;23.312;2023-02-11T00:05:58;96177.53;;;-3.90;70.12
7170;BME280;3626;42.656;23.312;2023-02-11T00:06:06;96181.72;;;-3.91;69.98
7170;BME280;3626;42.656;23.312;2023-02-11T00:06:14;96181.78;;;-3.92;69.88
7170;BME280;3626;42.656;23.312;2023-02-11T00:06:22;96180.91;;;-3.91;69.85
7170;BME280;3626;42.656;23.312;2023-02-11T00:06:29;96185.13;;;-3.92;69.90
7170;BME280;3626;42.656;23.312;2023-02-11T00:06:38;96185.19;;;-3.93;69.81
7170;BME280;3626;42.656;23.312;2023-02-11T00:06:44;96181.84;;;-3.95;69.99
7170;BME280;3626;42.656;23.312;2023-02-11T00:06:50;96181.91;;;-3.97;69.77
7170;BME280;3626;42.656;23.312;2023-02-11T00:06:57;96181.13;;;-3.99;70.00
7170;BME280;3626;42.656;23.312;2023-02-11T00:07:03;96177.75;;;-3.99;69.85
7170;BME280;3626;42.656;23.312;2023-02-11T00:07:09;96190.38;;;-3.99;69.84
7170;BME280;3626;42.656;23.312;2023-02-11T00:07:15;96185.31;;;-3.99;69.91
7170;BME280;3626;42.656;23.312;2023-02-11T00:07:21;96187.03;;;-4.00;69.87
7170;BME280;3626;42.656;23.312;2023-02-11T00:07:28;96187.91;;;-4.01;70.16
7170;BME280;3626;42.656;23.312;2023-02-11T00:07:35;96189.59;;;-4.02;69.79
7170;BME280;3626;42.656;23.312;2023-02-11T00:07:41;96183.72;;;-4.02;69.61
7170;BME280;3626;42.656;23.312;2023-02-11T00:07:47;96187.13;;;-4.03;69.63
7170;BME280;3626;42.656;23.312;2023-02-11T00:07:53;96184.59;;;-4.03;69.70
7170;BME280;3626;42.656;23.312;2023-02-11T00:07:59;96185.41;;;-4.03;69.78
7170;BME280;3626;42.656;23.312;2023-02-11T00:08:05;96188.78;;;-4.02;69.84
7170;BME280;3626;42.656;23.312;2023-02-11T00:08:11;96187.06;;;-4.02;69.62
7170;BME280;3626;42.656;23.312;2023-02-11T00:08:21;96186.19;;;-4.00;69.81
7170;BME280;3626;42.656;23.312;2023-02-11T00:08:27;96180.38;;;-4.03;69.83
7170;BME280;3626;42.656;23.312;2023-02-11T00:08:33;96186.25;;;-4.04;69.94
7170;BME280;3626;42.656;23.312;2023-02-11T00:08:39;96182.06;;;-4.03;70.39
7170;BME280;3626;42.656;23.312;2023-02-11T00:08:48;96185.41;;;-4.03;69.81
7170;BME280;3626;42.656;23.312;2023-02-11T00:08:55;96184.53;;;-4.02;69.83
7170;BME280;3626;42.656;23.312;2023-02-11T00:09:01;96185.38;;;-4.01;69.74
7170;BME280;3626;42.656;23.312;2023-02-11T00:09:09;96181.22;;;-4.04;70.06
7170;BME280;3626;42.656;23.312;2023-02-11T00:09:17;96177.03;;;-4.03;69.62
7170;BME280;3626;42.656;23.312;2023-02-11T00:09:23;96183.72;;;-4.02;70.00
7170;BME280;3626;42.656;23.312;2023-02-11T00:09:29;96182.03;;;-4.02;69.90
7170;BME280;3626;42.656;23.312;2023-02-11T00:09:36;96184.53;;;-4.02;69.79
7170;BME280;3626;42.656;23.312;2023-02-11T00:09:42;96184.50;;;-4.00;69.87
7170;BME280;3626;42.656;23.312;2023-02-11T00:09:48;96182.81;;;-3.99;69.81
7170;BME280;3626;42.656;23.312;2023-02-11T00:09:57;96187.84;;;-3.99;69.83
7170;BME280;3626;42.656;23.312;2023-02-11T00:10:04;96186.19;;;-4.00;70.10
7170;BME280;3626;42.656;23.312;2023-02-11T00:10:12;96186.19;;;-4.00;69.67
7170;BME280;3626;42.656;23.312;2023-02-11T00:10:18;96179.50;;;-4.02;69.90
7170;BME280;3626;42.656;23.312;2023-02-11T00:10:24;96179.50;;;-4.02;69.80
7170;BME280;3626;42.656;23.312;2023-02-11T00:10:30;96191.25;;;-4.00;70.10
7170;BME280;3626;42.656;23.312;2023-02-11T00:10:35;96175.28;;;-4.01;69.88
7170;BME280;3626;42.656;23.312;2023-02-11T00:10:41;96176.97;;;-4.02;70.20
7170;BME280;3626;42.656;23.312;2023-02-11T00:10:51;96181.97;;;-4.00;70.01
7170;BME280;3626;42.656;23.312;2023-02-11T00:10:57;96182.03;;;-4.02;69.80
7170;BME280;3626;42.656;23.312;2023-02-11T00:11:04;96176.94;;;-4.00;69.91
7170;BME280;3626;42.656;23.312;2023-02-11T00:11:12;96181.19;;;-4.02;70.10
7170;BME280;3626;42.656;23.312;2023-02-11T00:11:22;96177.84;;;-4.03;69.91
7170;BME280;3626;42.656;23.312;2023-02-11T00:11:30;96180.41;;;-4.04;70.02
7170;BME280;3626;42.656;23.312;2023-02-11T00:11:36;96178.75;;;-4.05;69.90
7170;BME280;3626;42.656;23.312;2023-02-11T00:11:42;96182.16;;;-4.06;69.85
7170;BME280;3626;42.656;23.312;2023-02-11T00:11:48;96180.44;;;-4.06;70.08
7170;BME280;3626;42.656;23.312;2023-02-11T00:11:54;96181.31;;;-4.07;70.51
7170;BME280;3626;42.656;23.312;2023-02-11T00:12:00;96184.63;;;-4.05;70.13
7170;BME280;3626;42.656;23.312;2023-02-11T00:12:06;96185.50;;;-4.06;70.12
7170;BME280;3626;42.656;23.312;2023-02-11T00:12:12;96177.09;;;-4.06;70.00
7170;BME280;3626;42.656;23.312;2023-02-11T00:12:18;96181.31;;;-4.07;69.78
7170;BME280;3626;42.656;23.312;2023-02-11T00:12:24;96180.53;;;-4.09;70.12
7170;BME280;3626;42.656;23.312;2023-02-11T00:12:30;96183.88;;;-4.08;70.32
7170;BME280;3626;42.656;23.312;2023-02-11T00:12:38;96185.56;;;-4.09;70.19
7170;BME280;3626;42.656;23.312;2023-02-11T00:12:45;96181.44;;;-4.11;70.31
7170;BME280;3626;42.656;23.312;2023-02-11T00:12:51;96183.09;;;-4.10;70.42
7170;BME280;3626;42.656;23.312;2023-02-11T00:12:57;96178.88;;;-4.10;70.41
7170;BME280;3626;42.656;23.312;2023-02-11T00:13:03;96180.56;;;-4.10;70.30
7170;BME280;3626;42.656;23.312;2023-02-11T00:13:09;96185.63;;;-4.10;70.38
7170;BME280;3626;42.656;23.312;2023-02-11T00:13:15;96183.91;;;-4.10;70.33
7170;BME280;3626;42.656;23.312;2023-02-11T00:13:21;96189.75;;;-4.08;70.51
7170;BME280;3626;42.656;23.312;2023-02-11T00:13:28;96182.19;;;-4.08;70.42
7170;BME280;3626;42.656;23.312;2023-02-11T00:13:36;96185.53;;;-4.07;70.16
7170;BME280;3626;42.656;23.312;2023-02-11T00:13:43;96183.84;;;-4.07;70.21
7170;BME280;3626;42.656;23.312;2023-02-11T00:13:49;96188.84;;;-4.05;70.49
7170;BME280;3626;42.656;23.312;2023-02-11T00:13:55;96183.84;;;-4.07;70.16
7170;BME280;3626;42.656;23.312;2023-02-11T00:14:06;96181.31;;;-4.07;70.31
7170;BME280;3626;42.656;23.312;2023-02-11T00:14:12;96182.16;;;-4.06;70.37
7170;BME280;3626;42.656;23.312;2023-02-11T00:14:18;96181.31;;;-4.07;70.36
7170;BME280;3626;42.656;23.312;2023-02-11T00:14:24;96182.19;;;-4.08;70.23
7170;BME280;3626;42.656;23.312;2023-02-11T00:14:31;96181.31;;;-4.07;70.05
7170;BME280;3626;42.656;23.312;2023-02-11T00:14:37;96182.09;;;-4.05;70.17
7170;BME280;3626;42.656;23.312;2023-02-11T00:14:43;96172.88;;;-4.06;70.10
7170;BME280;3626;42.656;23.312;2023-02-11T00:14:49;96179.56;;;-4.03;70.12
7170;BME280;3626;42.656;23.312;2023-02-11T00:14:55;96172.84;;;-4.04;70.21
7170;BME280;3626;42.656;23.312;2023-02-11T00:15:01;96173.63;;;-4.02;70.02
7170;BME280;3626;42.656;23.312;2023-02-11T00:15:08;96176.16;;;-4.02;70.17
7170;BME280;3626;42.656;23.312;2023-02-11T00:15:14;96176.09;;;-4.00;69.99
7170;BME280;3626;42.656;23.312;2023-02-11T00:15:20;96187.03;;;-4.00;69.91
7170;BME280;3626;42.656;23.312;2023-02-11T00:15:26;96175.22;;;-3.99;69.96
7170;BME280;3626;42.656;23.312;2023-02-11T00:15:36;96175.22;;;-3.99;69.79
7170;BME280;3626;42.656;23.312;2023-02-11T00:15:41;96178.59;;;-3.99;69.97
7170;BME280;3626;42.656;23.312;2023-02-11T00:15:47;96175.22;;;-3.98;69.95
7170;BME280;3626;42.656;23.312;2023-02-11T00:15:54;96175.22;;;-3.98;69.87
7170;BME280;3626;42.656;23.312;2023-02-11T00:16:05;96182.78;;;-3.98;69.94
7170;BME280;3626;42.656;23.312;2023-02-11T00:16:14;96180.25;;;-3.98;69.79
7170;BME280;3626;42.656;23.312;2023-02-11T00:16:20;96182.72;;;-3.96;69.95
7170;BME280;3626;42.656;23.312;2023-02-11T00:16:29;96189.47;;;-3.97;70.27
7170;BME280;3626;42.656;23.312;2023-02-11T00:16:36;96181.16;;;-4.00;70.00
7170;BME280;3626;42.656;23.312;2023-02-11T00:16:42;96181.16;;;-4.00;69.86
7170;BME280;3626;42.656;23.312;2023-02-11T00:16:48;96176.09;;;-4.00;70.02
7170;BME280;3626;42.656;23.312;2023-02-11T00:16:57;96187.03;;;-4.00;69.85
7170;BME280;3626;42.656;23.312;2023-02-11T00:17:03;96181.97;;;-4.00;70.01
7170;BME280;3626;42.656;23.312;2023-02-11T00:17:09;96182.81;;;-3.99;69.98
7170;BME280;3626;42.656;23.312;2023-02-11T00:17:15;96181.97;;;-3.98;70.09
7170;BME280;3626;42.656;23.312;2023-02-11T00:17:21;96181.97;;;-4.00;69.61
7170;BME280;3626;42.656;23.312;2023-02-11T00:17:29;96178.63;;;-4.00;69.53
7170;BME280;3626;42.656;23.312;2023-02-11T00:17:35;96191.22;;;-3.99;70.32
7170;BME280;3626;42.656;23.312;2023-02-11T00:17:41;96188.72;;;-4.00;69.91
7170;BME280;3626;42.656;23.312;2023-02-11T00:17:47;96182.81;;;-3.99;70.00
7170;BME280;3626;42.656;23.312;2023-02-11T00:17:53;96185.31;;;-3.99;69.96
7170;BME280;3626;42.656;23.312;2023-02-11T00:17:59;96184.50;;;-4.00;69.91
7170;BME280;3626;42.656;23.312;2023-02-11T00:18:05;96187.84;;;-3.99;70.02
7170;BME280;3626;42.656;23.312;2023-02-11T00:18:11;96182.81;;;-3.99;70.04
7170;BME280;3626;42.656;23.312;2023-02-11T00:18:17;96182.81;;;-3.99;70.03
7170;BME280;3626;42.656;23.312;2023-02-11T00:18:23;96182.81;;;-3.99;69.76
7170;BME280;3626;42.656;23.312;2023-02-11T00:18:29;96186.19;;;-3.99;70.05
7170;BME280;3626;42.656;23.312;2023-02-11T00:18:37;96187.03;;;-4.00;69.96
7170;BME280;3626;42.656;23.312;2023-02-11T00:18:45;96184.50;;;-4.00;69.79
7170;BME280;3626;42.656;23.312;2023-02-11T00:18:51;96185.38;;;-4.01;69.60
7170;BME280;3626;42.656;23.312;2023-02-11T00:18:59;96186.19;;;-4.00;69.76
7170;BME280;3626;42.656;23.312;2023-02-11T00:19:05;96187.84;;;-3.99;69.90
7170;BME280;3626;42.656;23.312;2023-02-11T00:19:11;96192.88;;;-3.99;69.93
7170;BME280;3626;42.656;23.312;2023-02-11T00:19:17;96190.38;;;-3.99;70.02
7170;BME280;3626;42.656;23.312;2023-02-11T00:19:25;96187.84;;;-3.99;69.71
7170;BME280;3626;42.656;23.312;2023-02-11T00:19:31;96183.66;;;-4.00;69.95
7170;BME280;3626;42.656;23.312;2023-02-11T00:19:37;96189.53;;;-4.00;69.92
7170;BME280;3626;42.656;23.312;2023-02-11T00:19:43;96183.66;;;-4.00;69.98
7170;BME280;3626;42.656;23.312;2023-02-11T00:19:49;96181.16;;;-4.00;69.83
7170;BME280;3626;42.656;23.312;2023-02-11T00:19:55;96185.38;;;-4.01;70.10
7170;BME280;3626;42.656;23.312;2023-02-11T00:20:03;96185.38;;;-4.01;69.94
7170;BME280;3626;42.656;23.312;2023-02-11T00:20:09;96185.41;;;-4.03;69.99
7170;BME280;3626;42.656;23.312;2023-02-11T00:20:15;96177.84;;;-4.03;70.10
7170;BME280;3626;42.656;23.312;2023-02-11T00:20:21;96184.59;;;-4.03;69.86
7170;BME280;3626;42.656;23.312;2023-02-11T00:20:27;96181.22;;;-4.04;69.85
7170;BME280;3626;42.656;23.312;2023-02-11T00:20:33;96183.75;;;-4.04;70.10
7170;BME280;3626;42.656;23.312;2023-02-11T00:20:39;96189.72;;;-4.06;69.99
7170;BME280;3626;42.656;23.312;2023-02-11T00:20:45;96185.50;;;-4.06;69.96
7170;BME280;3626;42.656;23.312;2023-02-11T00:20:51;96179.69;;;-4.08;70.03
7170;BME280;3626;42.656;23.312;2023-02-11T00:20:57;96188.09;;;-4.09;69.79
7170;BME280;3626;42.656;23.312;2023-02-11T00:21:07;96184.75;;;-4.09;69.75
7170;BME280;3626;42.656;23.312;2023-02-11T00:21:16;96192.31;;;-4.09;70.03
7170;BME280;3626;42.656;23.312;2023-02-11T00:21:24;96187.31;;;-4.11;69.99
7170;BME280;3626;42.656;23.312;2023-02-11T00:21:31;96192.38;;;-4.12;69.78
7170;BME280;3626;42.656;23.312;2023-02-11T00:21:40;96181.47;;;-4.13;69.86
7170;BME280;3626;42.656;23.312;2023-02-11T00:21:46;96194.06;;;-4.11;69.69
7170;BME280;3626;42.656;23.312;2023-02-11T00:21:52;96189.00;;;-4.11;70.03
7170;BME280;3626;42.656;23.312;2023-02-11T00:21:57;96192.38;;;-4.12;69.79
7170;BME280;3626;42.656;23.312;2023-02-11T00:22:03;96191.56;;;-4.13;69.70
7170;BME280;3626;42.656;23.312;2023-02-11T00:22:09;96188.19;;;-4.12;70.02
7170;BME280;3626;42.656;23.312;2023-02-11T00:22:15;96189.00;;;-4.11;70.12
7170;BME280;3626;42.656;23.312;2023-02-11T00:22:21;96188.13;;;-4.10;69.82
7170;BME280;3626;42.656;23.312;2023-02-11T00:22:27;96187.25;;;-4.09;70.34
7170;BME280;3626;42.656;23.312;2023-02-11T00:22:33;96184.78;;;-4.11;70.01
7170;BME280;3626;42.656;23.312;2023-02-11T00:22:39;96191.53;;;-4.11;70.09
7170;BME280;3626;42.656;23.312;2023-02-11T00:22:46;96190.72;;;-4.12;69.96
7170;BME280;3626;42.656;23.312;2023-02-11T00:22:54;96189.03;;;-4.13;69.98
7170;BME280;3626;42.656;23.312;2023-02-11T00:23:00;96181.50;;;-4.14;70.02
7170;BME280;3626;42.656;23.312;2023-02-11T00:23:06;96186.59;;;-4.16;70.21
7170;BME280;3626;42.656;23.312;2023-02-11T00:23:12;96183.22;;;-4.16;70.03
7170;BME280;3626;42.656;23.312;2023-02-11T00:23:18;96184.09;;;-4.17;69.79
7170;BME280;3626;42.656;23.312;2023-02-11T00:23:24;96186.63;;;-4.17;70.07
7170;BME280;3626;42.656;23.312;2023-02-11T00:23:30;96186.63;;;-4.17;70.14
7170;BME280;3626;42.656;23.312;2023-02-11T00:23:36;96184.09;;;-4.17;70.26
7170;BME280;3626;42.656;23.312;2023-02-11T00:23:43;96183.22;;;-4.16;70.01
7170;BME280;3626;42.656;23.312;2023-02-11T00:23:50;96186.59;;;-4.16;70.21
7170;BME280;3626;42.656;23.312;2023-02-11T00:23:58;96187.44;;;-4.15;69.99
7170;BME280;3626;42.656;23.312;2023-02-11T00:24:09;96181.56;;;-4.16;70.01
7170;BME280;3626;42.656;23.312;2023-02-11T00:24:15;96187.44;;;-4.15;70.18
7170;BME280;3626;42.656;23.312;2023-02-11T00:24:22;96188.25;;;-4.15;70.19
7170;BME280;3626;42.656;23.312;2023-02-11T00:24:28;96188.25;;;-4.15;70.12
7170;BME280;3626;42.656;23.312;2023-02-11T00:24:35;96183.22;;;-4.15;69.88
7170;BME280;3626;42.656;23.312;2023-02-11T00:24:41;96181.47;;;-4.13;70.14
7170;BME280;3626;42.656;23.312;2023-02-11T00:24:47;96192.38;;;-4.12;70.24
7170;BME280;3626;42.656;23.312;2023-02-11T00:24:53;96182.28;;;-4.12;70.07
7170;BME280;3626;42.656;23.312;2023-02-11T00:25:01;96193.22;;;-4.12;70.12
7170;BME280;3626;42.656;23.312;2023-02-11T00:25:08;96194.06;;;-4.11;70.31
7170;BME280;3626;42.656;23.312;2023-02-11T00:25:14;96193.25;;;-4.13;70.09
7170;BME280;3626;42.656;23.312;2023-02-11T00:25:23;96185.75;;;-4.16;70.32
7170;BME280;3626;42.656;23.312;2023-02-11T00:25:29;96188.28;;;-4.16;70.24
7170;BME280;3626;42.656;23.312;2023-02-11T00:25:38;96184.16;;;-4.19;70.46
7170;BME280;3626;42.656;23.312;2023-02-11T00:25:44;96195.06;;;-4.18;70.05
7170;BME280;3626;42.656;23.312;2023-02-11T00:25:50;96190.03;;;-4.18;70.24
7170;BME280;3626;42.656;23.312;2023-02-11T00:25:56;96186.72;;;-4.20;70.21
7170;BME280;3626;42.656;23.312;2023-02-11T00:26:04;96188.41;;;-4.21;70.23
7170;BME280;3626;42.656;23.312;2023-02-11T00:26:18;96187.56;;;-4.20;70.39
7170;BME280;3626;42.656;23.312;2023-02-11T00:26:26;96188.38;;;-4.19;70.46
7170;BME280;3626;42.656;23.312;2023-02-11T00:26:34;96193.41;;;-4.19;70.25
7170;BME280;3626;42.656;23.312;2023-02-11T00:26:41;96190.06;;;-4.20;70.12
7170;BME280;3626;42.656;23.312;2023-02-11T00:26:47;96188.41;;;-4.21;70.46
7170;BME280;3626;42.656;23.312;2023-02-11T00:26:55;96190.91;;;-4.19;70.28
7170;BME280;3626;42.656;23.312;2023-02-11T00:27:01;96190.91;;;-4.19;70.52
7170;BME280;3626;42.656;23.312;2023-02-11T00:27:07;96190.91;;;-4.19;70.41
7170;BME280;3626;42.656;23.312;2023-02-11T00:27:13;96196.00;;;-4.22;70.45
7170;BME280;3626;42.656;23.312;2023-02-11T00:27:19;96196.81;;;-4.22;70.08
7170;BME280;3626;42.656;23.312;2023-02-11T00:27:25;96184.22;;;-4.22;70.56
7170;BME280;3626;42.656;23.312;2023-02-11T00:27:32;96190.13;;;-4.23;70.25
7170;BME280;3626;42.656;23.312;2023-02-11T00:27:38;96189.31;;;-4.23;70.59
7170;BME280;3626;42.656;23.312;2023-02-11T00:27:44;96202.78;;;-4.24;70.31
7170;BME280;3626;42.656;23.312;2023-02-11T00:27:50;96192.72;;;-4.24;70.47
7170;BME280;3626;42.656;23.312;2023-02-11T00:27:56;96190.19;;;-4.24;70.42
7170;BME280;3626;42.656;23.312;2023-02-11T00:28:02;96190.22;;;-4.26;70.52
7170;BME280;3626;42.656;23.312;2023-02-11T00:28:08;96190.22;;;-4.26;70.14
7170;BME280;3626;42.656;23.312;2023-02-11T00:28:15;96185.16;;;-4.26;70.16
7170;BME280;3626;42.656;23.312;2023-02-11T00:28:21;96196.94;;;-4.27;70.24
7170;BME280;3626;42.656;23.312;2023-02-11T00:28:27;96191.09;;;-4.27;70.26
7170;BME280;3626;42.656;23.312;2023-02-11T00:28:33;96190.25;;;-4.28;70.50
7170;BME280;3626;42.656;23.312;2023-02-11T00:28:42;96192.78;;;-4.28;70.39
7170;BME280;3626;42.656;23.312;2023-02-11T00:28:50;96195.31;;;-4.28;70.66
7170;BME280;3626;42.656;23.312;2023-02-11T00:28:56;96191.09;;;-4.27;70.32
7170;BME280;3626;42.656;23.312;2023-02-11T00:29:03;96191.13;;;-4.29;70.49
7170;BME280;3626;42.656;23.312;2023-02-11T00:29:09;96191.97;;;-4.30;70.47
7170;BME280;3626;42.656;23.312;2023-02-11T00:29:18;96185.22;;;-4.29;70.55
7170;BME280;3626;42.656;23.312;2023-02-11T00:29:24;96188.63;;;-4.30;70.28
7170;BME280;3626;42.656;23.312;2023-02-11T00:29:30;96199.59;;;-4.31;70.52
7170;BME280;3626;42.656;23.312;2023-02-11T00:29:36;96190.31;;;-4.31;70.49
7170;BME280;3626;42.656;23.312;2023-02-11T00:29:43;96189.50;;;-4.31;70.66
7170;BME280;3626;42.656;23.312;2023-02-11T00:29:54;96187.81;;;-4.31;70.42
7170;BME280;3626;42.656;23.312;2023-02-11T00:30:00;96185.34;;;-4.32;70.71
7170;BME280;3626;42.656;23.312;2023-02-11T00:30:07;96192.06;;;-4.33;70.62
7170;BME280;3626;42.656;23.312;2023-02-11T00:30:15;96193.78;;;-4.33;70.67
7170;BME280;3626;42.656;23.312;2023-02-11T00:30:23;96185.34;;;-4.34;70.55
7170;BME280;3626;42.656;23.312;2023-02-11T00:30:29;96194.59;;;-4.34;70.85
7170;BME280;3626;42.656;23.312;2023-02-11T00:30:35;96187.88;;;-4.34;70.71
7170;BME280;3626;42.656;23.312;2023-02-11T00:30:41;96190.41;;;-4.34;70.58
7170;BME280;3626;42.656;23.312;2023-02-11T00:30:53;96187.84;;;-4.32;70.91
7170;BME280;3626;42.656;23.312;2023-02-11T00:30:59;96189.56;;;-4.33;70.71
7170;BME280;3626;42.656;23.312;2023-02-11T00:31:07;96193.66;;;-4.30;70.79
7170;BME280;3626;42.656;23.312;2023-02-11T00:31:17;96192.78;;;-4.29;70.66
7170;BME280;3626;42.656;23.312;2023-02-11T00:31:23;96190.28;;;-4.29;70.84
7170;BME280;3626;42.656;23.312;2023-02-11T00:31:29;96191.16;;;-4.30;70.58
7170;BME280;3626;42.656;23.312;2023-02-11T00:31:35;96181.06;;;-4.30;70.79
7170;BME280;3626;42.656;23.312;2023-02-11T00:31:41;96193.66;;;-4.30;70.80
7170;BME280;3626;42.656;23.312;2023-02-11T00:31:48;96187.81;;;-4.31;70.53
7170;BME280;3626;42.656;23.312;2023-02-11T00:31:54;96194.50;;;-4.30;70.79
7170;BME280;3626;42.656;23.312;2023-02-11T00:32:00;96195.38;;;-4.31;70.56
7170;BME280;3626;42.656;23.312;2023-02-11T00:32:09;96186.97;;;-4.31;70.52
7170;BME280;3626;42.656;23.312;2023-02-11T00:32:18;96192.03;;;-4.31;70.85
7170;BME280;3626;42.656;23.312;2023-02-11T00:32:24;96189.56;;;-4.33;70.84
7170;BME280;3626;42.656;23.312;2023-02-11T00:32:31;96197.94;;;-4.34;70.95
7170;BME280;3626;42.656;23.312;2023-02-11T00:32:38;96194.59;;;-4.34;70.91
7170;BME280;3626;42.656;23.312;2023-02-11T00:32:47;96197.13;;;-4.34;70.99
7170;BME280;3626;42.656;23.312;2023-02-11T00:32:53;96187.03;;;-4.34;71.16
7170;BME280;3626;42.656;23.312;2023-02-11T00:32:59;96190.38;;;-4.32;70.67
7170;BME280;3626;42.656;23.312;2023-02-11T00:33:05;96188.72;;;-4.33;70.76
7170;BME280;3626;42.656;23.312;2023-02-11T00:33:11;96185.34;;;-4.34;70.61
7170;BME280;3626;42.656;23.312;2023-02-11T00:33:17;96189.56;;;-4.34;70.88
7170;BME280;3626;42.656;23.312;2023-02-11T00:33:23;96194.66;;;-4.36;71.07
7170;BME280;3626;42.656;23.312;2023-02-11T00:33:29;96195.47;;;-4.35;71.00
7170;BME280;3626;42.656;23.312;2023-02-11T00:33:35;96195.47;;;-4.35;70.90
7170;BME280;3626;42.656;23.312;2023-02-11T00:33:41;96188.75;;;-4.35;70.75
7170;BME280;3626;42.656;23.312;2023-02-11T00:33:48;96192.91;;;-4.34;70.66
7170;BME280;3626;42.656;23.312;2023-02-11T00:33:57;96187.88;;;-4.34;71.04
7170;BME280;3626;42.656;23.312;2023-02-11T00:34:03;96187.03;;;-4.33;70.82
7170;BME280;3626;42.656;23.312;2023-02-11T00:34:09;96192.06;;;-4.33;71.00
7170;BME280;3626;42.656;23.312;2023-02-11T00:34:15;96187.84;;;-4.32;71.04
7170;BME280;3626;42.656;23.312;2023-02-11T00:34:21;96185.34;;;-4.32;71.03
7170;BME280;3626;42.656;23.312;2023-02-11T00:34:27;96187.03;;;-4.33;70.84
7170;BME280;3626;42.656;23.312;2023-02-11T00:34:33;96183.69;;;-4.33;70.84
7170;BME280;3626;42.656;23.312;2023-02-11T00:34:40;96182.81;;;-4.32;71.11
7170;BME280;3626;42.656;23.312;2023-02-11T00:34:46;96186.16;;;-4.32;70.62
7170;BME280;3626;42.656;23.312;2023-02-11T00:34:52;96181.94;;;-4.31;70.34
7170;BME280;3626;42.656;23.312;2023-02-11T00:34:59;96186.16;;;-4.32;70.67
7170;BME280;3626;42.656;23.312;2023-02-11T00:35:08;96180.25;;;-4.31;70.92
7170;BME280;3626;42.656;23.312;2023-02-11T00:35:15;96183.59;;;-4.30;70.55
7170;BME280;3626;42.656;23.312;2023-02-11T00:35:21;96181.94;;;-4.31;70.86
7170;BME280;3626;42.656;23.312;2023-02-11T00:35:27;96184.47;;;-4.31;70.48
7170;BME280;3626;42.656;23.312;2023-02-11T00:35:37;96180.25;;;-4.31;70.62
7170;BME280;3626;42.656;23.312;2023-02-11T00:35:45;96181.13;;;-4.32;70.77
7170;BME280;3626;42.656;23.312;2023-02-11T00:35:51;96186.09;;;-4.30;71.04
7170;BME280;3626;42.656;23.312;2023-02-11T00:36:03;96181.13;;;-4.32;70.73
7170;BME280;3626;42.656;23.312;2023-02-11T00:36:13;96189.56;;;-4.33;70.73
7170;BME280;3626;42.656;23.312;2023-02-11T00:36:21;96186.22;;;-4.35;70.67
7170;BME280;3626;42.656;23.312;2023-02-11T00:36:30;96179.53;;;-4.36;70.72